sensor_id;sensor_type;location;lat;lon;timestamp;P1;durP1;ratioP1;P2;durP2;ratioP2
12467;SDS011;57850;52.922;6.256;2023-01-06T00:01:31;35.17;;;12.93;;
12467;SDS011;57850;52.922;6.256;2023-01-06T00:03:58;32.97;;;14.63;;
12467;SDS011;57850;52.922;6.256;2023-01-06T00:06:26;40.22;;;14.68;;
12467;SDS011;57850;52.922;6.256;2023-01-06T00:08:55;38.88;;;12.90;;
12467;SDS011;57850;52.922;6.256;2023-01-06T00:11:23;35.08;;;13.23;;
12467;SDS011;57850;52.922;6.256;2023-01-06T00:13:50;30.08;;;12.25;;
12467;SDS011;57850;52.922;6.256;2023-01-06T00:16:18;37.33;;;12.40;;
12467;SDS011;57850;52.922;6.256;2023-01-06T00:18:47;31.05;;;12.55;;
12467;SDS011;57850;52.922;6.256;2023-01-06T00:21:14;33.25;;;13.23;;
12467;SDS011;57850;52.922;6.256;2023-01-06T00:23:41;32.67;;;13.35;;
12467;SDS011;57850;52.922;6.256;2023-01-06T00:26:08;38.58;;;13.07;;
12467;SDS011;57850;52.922;6.256;2023-01-06T00:28:41;32.88;;;13.25;;
12467;SDS011;57850;52.922;6.256;2023-01-06T00:31:10;31.80;;;12.55;;
12467;SDS011;57850;52.922;6.256;2023-01-06T00:33:38;32.60;;;13.05;;
12467;SDS011;57850;52.922;6.256;2023-01-06T00:36:07;26.98;;;12.38;;
12467;SDS011;57850;52.922;6.256;2023-01-06T00:38:35;27.70;;;12.48;;
12467;SDS011;57850;52.922;6.256;2023-01-06T00:41:02;28.17;;;12.90;;
12467;SDS011;57850;52.922;6.256;2023-01-06T00:43:50;23.08;;;11.65;;
12467;SDS011;57850;52.922;6.256;2023-01-06T00:46:16;26.00;;;11.25;;
12467;SDS011;57850;52.922;6.256;2023-01-06T00:48:43;20.75;;;9.15;;
12467;SDS011;57850;52.922;6.256;2023-01-06T00:51:11;22.80;;;10.32;;
12467;SDS011;57850;52.922;6.256;2023-01-06T00:53:37;21.23;;;9.35;;
12467;SDS011;57850;52.922;6.256;2023-01-06T00:56:04;24.90;;;10.18;;
12467;SDS011;57850;52.922;6.256;2023-01-06T00:58:31;20.95;;;10.55;;
12467;SDS011;57850;52.922;6.256;2023-01-06T01:01:02;19.55;;;9.85;;
12467;SDS011;57850;52.922;6.256;2023-01-06T01:03:41;19.83;;;9.60;;
12467;SDS011;57850;52.922;6.256;2023-01-06T01:06:25;22.90;;;9.30;;
12467;SDS011;57850;52.922;6.256;2023-01-06T01:08:52;19.25;;;9.32;;
12467;SDS011;57850;52.922;6.256;2023-01-06T01:11:20;15.55;;;9.88;;
12467;SDS011;57850;52.922;6.256;2023-01-06T01:14:05;14.60;;;10.25;;
12467;SDS011;57850;52.922;6.256;2023-01-06T01:16:32;23.02;;;10.60;;
12467;SDS011;57850;52.922;6.256;2023-01-06T01:18:58;21.55;;;9.85;;
12467;SDS011;57850;52.922;6.256;2023-01-06T01:21:27;18.15;;;11.25;;
12467;SDS011;57850;52.922;6.256;2023-01-06T01:23:53;24.45;;;10.90;;
12467;SDS011;57850;52.922;6.256;2023-01-06T01:26:20;21.08;;;10.98;;
12467;SDS011;57850;52.922;6.256;2023-01-06T01:28:46;20.00;;;12.35;;
12467;SDS011;57850;52.922;6.256;2023-01-06T01:31:13;21.65;;;11.02;;
12467;SDS011;57850;52.922;6.256;2023-01-06T01:33:41;17.58;;;11.55;;
12467;SDS011;57850;52.922;6.256;2023-01-06T01:36:09;17.20;;;11.35;;
12467;SDS011;57850;52.922;6.256;2023-01-06T01:38:39;22.90;;;11.27;;
12467;SDS011;57850;52.922;6.256;2023-01-06T01:41:05;18.55;;;11.20;;
12467;SDS011;57850;52.922;6.256;2023-01-06T01:43:42;16.52;;;10.55;;
12467;SDS011;57850;52.922;6.256;2023-01-06T01:46:09;18.23;;;11.07;;
12467;SDS011;57850;52.922;6.256;2023-01-06T01:48:37;21.15;;;11.98;;
12467;SDS011;57850;52.922;6.256;2023-01-06T01:51:06;18.33;;;11.00;;
12467;SDS011;57850;52.922;6.256;2023-01-06T01:53:37;21.52;;;10.68;;
12467;SDS011;57850;52.922;6.256;2023-01-06T01:56:15;15.95;;;10.10;;
12467;SDS011;57850;52.922;6.256;2023-01-06T01:58:47;12.10;;;9.80;;
12467;SDS011;57850;52.922;6.256;2023-01-06T02:01:20;16.50;;;10.32;;
12467;SDS011;57850;52.922;6.256;2023-01-06T02:03:47;13.88;;;9.30;;
12467;SDS011;57850;52.922;6.256;2023-01-06T02:06:15;17.33;;;9.15;;
12467;SDS011;57850;52.922;6.256;2023-01-06T02:08:45;18.35;;;8.75;;
12467;SDS011;57850;52.922;6.256;2023-01-06T02:11:17;14.50;;;8.93;;
12467;SDS011;57850;52.922;6.256;2023-01-06T02:13:44;13.63;;;8.52;;
12467;SDS011;57850;52.922;6.256;2023-01-06T02:16:14;13.20;;;7.22;;
12467;SDS011;57850;52.922;6.256;2023-01-06T02:18:56;13.10;;;7.90;;
12467;SDS011;57850;52.922;6.256;2023-01-06T02:21:34;13.27;;;8.18;;
12467;SDS011;57850;52.922;6.256;2023-01-06T02:24:27;12.48;;;7.20;;
12467;SDS011;57850;52.922;6.256;2023-01-06T02:30:44;12.82;;;6.13;;
12467;SDS011;57850;52.922;6.256;2023-01-06T02:33:33;13.10;;;6.78;;
12467;SDS011;57850;52.922;6.256;2023-01-06T02:36:08;17.98;;;7.03;;
12467;SDS011;57850;52.922;6.256;2023-01-06T02:38:49;16.40;;;7.03;;
12467;SDS011;57850;52.922;6.256;2023-01-06T02:41:37;14.65;;;6.80;;
12467;SDS011;57850;52.922;6.256;2023-01-06T02:44:10;16.83;;;7.03;;
12467;SDS011;57850;52.922;6.256;2023-01-06T02:49:41;9.05;;;6.03;;
12467;SDS011;57850;52.922;6.256;2023-01-06T02:52:15;11.82;;;6.82;;
12467;SDS011;57850;52.922;6.256;2023-01-06T02:54:51;10.13;;;6.13;;
12467;SDS011;57850;52.922;6.256;2023-01-06T02:57:21;11.60;;;6.40;;
12467;SDS011;57850;52.922;6.256;2023-01-06T02:59:56;13.32;;;7.10;;
12467;SDS011;57850;52.922;6.256;2023-01-06T03:02:31;8.07;;;6.60;;
12467;SDS011;57850;52.922;6.256;2023-01-06T03:05:03;10.25;;;7.40;;
12467;SDS011;57850;52.922;6.256;2023-01-06T03:07:31;12.85;;;7.18;;
12467;SDS011;57850;52.922;6.256;2023-01-06T03:09:59;13.27;;;7.85;;
12467;SDS011;57850;52.922;6.256;2023-01-06T03:12:29;9.73;;;7.50;;
12467;SDS011;57850;52.922;6.256;2023-01-06T03:15:01;10.95;;;7.68;;
12467;SDS011;57850;52.922;6.256;2023-01-06T03:17:27;12.65;;;8.15;;
12467;SDS011;57850;52.922;6.256;2023-01-06T03:19:54;12.93;;;8.30;;
12467;SDS011;57850;52.922;6.256;2023-01-06T03:22:23;13.48;;;8.20;;
12467;SDS011;57850;52.922;6.256;2023-01-06T03:24:51;18.98;;;8.52;;
12467;SDS011;57850;52.922;6.256;2023-01-06T03:27:20;13.18;;;8.63;;
12467;SDS011;57850;52.922;6.256;2023-01-06T03:29:50;11.38;;;8.20;;
12467;SDS011;57850;52.922;6.256;2023-01-06T03:32:17;11.13;;;8.95;;
12467;SDS011;57850;52.922;6.256;2023-01-06T03:34:51;12.32;;;8.48;;
12467;SDS011;57850;52.922;6.256;2023-01-06T03:37:29;12.07;;;8.68;;
12467;SDS011;57850;52.922;6.256;2023-01-06T03:40:02;11.43;;;8.13;;
12467;SDS011;57850;52.922;6.256;2023-01-06T03:42:39;10.90;;;8.27;;
12467;SDS011;57850;52.922;6.256;2023-01-06T03:45:52;12.82;;;7.93;;
12467;SDS011;57850;52.922;6.256;2023-01-06T03:48:31;13.57;;;8.55;;
12467;SDS011;57850;52.922;6.256;2023-01-06T03:51:05;11.73;;;7.15;;
12467;SDS011;57850;52.922;6.256;2023-01-06T03:53:38;11.38;;;7.68;;
12467;SDS011;57850;52.922;6.256;2023-01-06T03:56:11;14.57;;;7.72;;
12467;SDS011;57850;52.922;6.256;2023-01-06T03:58:42;9.82;;;6.80;;
12467;SDS011;57850;52.922;6.256;2023-01-06T04:01:10;12.25;;;7.35;;
12467;SDS011;57850;52.922;6.256;2023-01-06T04:03:38;13.43;;;7.85;;
12467;SDS011;57850;52.922;6.256;2023-01-06T04:06:09;11.32;;;6.93;;
12467;SDS011;57850;52.922;6.256;2023-01-06T04:08:35;11.25;;;6.38;;
12467;SDS011;57850;52.922;6.256;2023-01-06T04:11:03;7.00;;;5.95;;
12467;SDS011;57850;52.922;6.256;2023-01-06T04:13:30;6.55;;;5.78;;
12467;SDS011;57850;52.922;6.256;2023-01-06T04:15:56;7.90;;;6.00;;
12467;SDS011;57850;52.922;6.256;2023-01-06T04:18:22;5.95;;;5.35;;
12467;SDS011;57850;52.922;6.256;2023-01-06T04:20:49;10.38;;;5.13;;
12467;SDS011;57850;52.922;6.256;2023-01-06T04:23:16;5.38;;;4.50;;
12467;SDS011;57850;52.922;6.256;2023-01-06T04:25:42;7.90;;;4.40;;
12467;SDS011;57850;52.922;6.256;2023-01-06T04:28:10;5.20;;;4.38;;
12467;SDS011;57850;52.922;6.256;2023-01-06T04:30:37;9.68;;;5.10;;
12467;SDS011;57850;52.922;6.256;2023-01-06T04:33:03;7.38;;;4.50;;
12467;SDS011;57850;52.922;6.256;2023-01-06T04:35:30;5.53;;;3.95;;
12467;SDS011;57850;52.922;6.256;2023-01-06T04:37:59;5.78;;;3.35;;
12467;SDS011;57850;52.922;6.256;2023-01-06T04:40:26;5.97;;;3.83;;
12467;SDS011;57850;52.922;6.256;2023-01-06T04:42:53;7.78;;;4.05;;
12467;SDS011;57850;52.922;6.256;2023-01-06T04:45:31;6.90;;;3.60;;
12467;SDS011;57850;52.922;6.256;2023-01-06T04:47:57;3.67;;;3.30;;
12467;SDS011;57850;52.922;6.256;2023-01-06T04:50:24;8.25;;;3.60;;
12467;SDS011;57850;52.922;6.256;2023-01-06T04:52:53;8.00;;;3.70;;
12467;SDS011;57850;52.922;6.256;2023-01-06T04:55:20;5.13;;;3.85;;
12467;SDS011;57850;52.922;6.256;2023-01-06T04:57:46;6.13;;;3.65;;
12467;SDS011;57850;52.922;6.256;2023-01-06T05:00:14;6.50;;;4.00;;
12467;SDS011;57850;52.922;6.256;2023-01-06T05:02:42;6.50;;;4.20;;
12467;SDS011;57850;52.922;6.256;2023-01-06T05:05:09;6.75;;;4.65;;
12467;SDS011;57850;52.922;6.256;2023-01-06T05:07:37;5.95;;;5.22;;
12467;SDS011;57850;52.922;6.256;2023-01-06T05:10:04;6.15;;;5.55;;
12467;SDS011;57850;52.922;6.256;2023-01-06T05:12:32;9.95;;;5.65;;
12467;SDS011;57850;52.922;6.256;2023-01-06T05:14:59;6.20;;;5.60;;
12467;SDS011;57850;52.922;6.256;2023-01-06T05:17:25;8.63;;;6.07;;
12467;SDS011;57850;52.922;6.256;2023-01-06T05:19:54;7.22;;;5.53;;
12467;SDS011;57850;52.922;6.256;2023-01-06T05:22:21;9.38;;;6.18;;
12467;SDS011;57850;52.922;6.256;2023-01-06T05:24:47;9.60;;;6.25;;
12467;SDS011;57850;52.922;6.256;2023-01-06T05:27:14;6.70;;;5.85;;
12467;SDS011;57850;52.922;6.256;2023-01-06T05:29:41;10.63;;;6.53;;
12467;SDS011;57850;52.922;6.256;2023-01-06T05:32:07;8.18;;;6.25;;
12467;SDS011;57850;52.922;6.256;2023-01-06T05:34:34;8.23;;;6.40;;
12467;SDS011;57850;52.922;6.256;2023-01-06T05:37:02;8.30;;;6.55;;
12467;SDS011;57850;52.922;6.256;2023-01-06T05:39:29;8.68;;;6.20;;
12467;SDS011;57850;52.922;6.256;2023-01-06T05:41:55;8.65;;;6.03;;
12467;SDS011;57850;52.922;6.256;2023-01-06T05:44:22;7.45;;;6.28;;
12467;SDS011;57850;52.922;6.256;2023-01-06T05:46:48;9.68;;;5.82;;
12467;SDS011;57850;52.922;6.256;2023-01-06T05:49:15;8.10;;;5.40;;
12467;SDS011;57850;52.922;6.256;2023-01-06T05:51:41;6.43;;;5.53;;
12467;SDS011;57850;52.922;6.256;2023-01-06T05:54:09;9.98;;;5.55;;
12467;SDS011;57850;52.922;6.256;2023-01-06T05:56:36;6.53;;;5.82;;
12467;SDS011;57850;52.922;6.256;2023-01-06T05:59:03;6.13;;;5.43;;
12467;SDS011;57850;52.922;6.256;2023-01-06T06:01:30;8.13;;;6.10;;
12467;SDS011;57850;52.922;6.256;2023-01-06T06:03:57;6.45;;;5.78;;
12467;SDS011;57850;52.922;6.256;2023-01-06T06:06:25;9.40;;;6.40;;
12467;SDS011;57850;52.922;6.256;2023-01-06T06:08:53;9.30;;;6.03;;
12467;SDS011;57850;52.922;6.256;2023-01-06T06:11:21;10.20;;;5.90;;
12467;SDS011;57850;52.922;6.256;2023-01-06T06:13:49;7.38;;;6.13;;
12467;SDS011;57850;52.922;6.256;2023-01-06T06:16:17;10.05;;;6.85;;
12467;SDS011;57850;52.922;6.256;2023-01-06T06:18:47;9.75;;;7.00;;
12467;SDS011;57850;52.922;6.256;2023-01-06T06:21:16;10.57;;;7.35;;
12467;SDS011;57850;52.922;6.256;2023-01-06T06:23:44;11.57;;;8.02;;
12467;SDS011;57850;52.922;6.256;2023-01-06T06:26:10;9.68;;;7.78;;
12467;SDS011;57850;52.922;6.256;2023-01-06T06:28:39;10.07;;;8.07;;
12467;SDS011;57850;52.922;6.256;2023-01-06T06:31:06;12.10;;;8.57;;
12467;SDS011;57850;52.922;6.256;2023-01-06T06:33:34;9.80;;;8.27;;
12467;SDS011;57850;52.922;6.256;2023-01-06T06:36:02;10.73;;;8.50;;
12467;SDS011;57850;52.922;6.256;2023-01-06T06:38:30;10.02;;;9.02;;
12467;SDS011;57850;52.922;6.256;2023-01-06T06:40:57;10.82;;;9.00;;
12467;SDS011;57850;52.922;6.256;2023-01-06T06:43:24;10.75;;;8.70;;
12467;SDS011;57850;52.922;6.256;2023-01-06T06:45:52;10.68;;;9.18;;
12467;SDS011;57850;52.922;6.256;2023-01-06T06:48:20;12.90;;;9.50;;
12467;SDS011;57850;52.922;6.256;2023-01-06T06:50:54;10.20;;;9.25;;
12467;SDS011;57850;52.922;6.256;2023-01-06T06:53:22;11.50;;;9.27;;
12467;SDS011;57850;52.922;6.256;2023-01-06T06:55:50;9.77;;;8.55;;
12467;SDS011;57850;52.922;6.256;2023-01-06T06:58:16;10.35;;;8.82;;
12467;SDS011;57850;52.922;6.256;2023-01-06T07:00:43;10.20;;;8.77;;
12467;SDS011;57850;52.922;6.256;2023-01-06T07:03:11;9.45;;;8.25;;
12467;SDS011;57850;52.922;6.256;2023-01-06T07:05:38;10.30;;;7.88;;
12467;SDS011;57850;52.922;6.256;2023-01-06T07:08:06;8.05;;;7.25;;
12467;SDS011;57850;52.922;6.256;2023-01-06T07:10:33;9.82;;;6.47;;
12467;SDS011;57850;52.922;6.256;2023-01-06T07:13:00;7.72;;;6.93;;
12467;SDS011;57850;52.922;6.256;2023-01-06T07:15:26;8.10;;;6.63;;
12467;SDS011;57850;52.922;6.256;2023-01-06T07:17:53;9.52;;;7.03;;
12467;SDS011;57850;52.922;6.256;2023-01-06T07:20:21;7.78;;;7.07;;
12467;SDS011;57850;52.922;6.256;2023-01-06T07:22:48;8.43;;;7.32;;
12467;SDS011;57850;52.922;6.256;2023-01-06T07:25:14;8.57;;;7.03;;
12467;SDS011;57850;52.922;6.256;2023-01-06T07:27:41;7.40;;;6.20;;
12467;SDS011;57850;52.922;6.256;2023-01-06T07:30:08;9.40;;;7.00;;
12467;SDS011;57850;52.922;6.256;2023-01-06T07:32:35;8.05;;;7.20;;
12467;SDS011;57850;52.922;6.256;2023-01-06T07:35:02;8.30;;;5.63;;
12467;SDS011;57850;52.922;6.256;2023-01-06T07:37:30;5.50;;;4.97;;
12467;SDS011;57850;52.922;6.256;2023-01-06T07:39:56;8.07;;;4.70;;
12467;SDS011;57850;52.922;6.256;2023-01-06T07:42:23;5.20;;;4.53;;
12467;SDS011;57850;52.922;6.256;2023-01-06T07:44:50;6.18;;;4.57;;
12467;SDS011;57850;52.922;6.256;2023-01-06T07:47:17;4.72;;;4.03;;
12467;SDS011;57850;52.922;6.256;2023-01-06T07:49:43;7.10;;;3.90;;
12467;SDS011;57850;52.922;6.256;2023-01-06T07:52:10;11.25;;;4.10;;
12467;SDS011;57850;52.922;6.256;2023-01-06T07:54:38;8.85;;;3.63;;
12467;SDS011;57850;52.922;6.256;2023-01-06T07:57:04;6.63;;;3.15;;
12467;SDS011;57850;52.922;6.256;2023-01-06T07:59:31;10.50;;;3.55;;
12467;SDS011;57850;52.922;6.256;2023-01-06T08:01:57;8.23;;;3.25;;
12467;SDS011;57850;52.922;6.256;2023-01-06T08:04:24;7.32;;;3.53;;
12467;SDS011;57850;52.922;6.256;2023-01-06T08:06:51;11.05;;;3.67;;
12467;SDS011;57850;52.922;6.256;2023-01-06T08:09:18;7.88;;;3.10;;
12467;SDS011;57850;52.922;6.256;2023-01-06T08:11:46;5.18;;;2.55;;
12467;SDS011;57850;52.922;6.256;2023-01-06T08:14:12;6.38;;;2.63;;
12467;SDS011;57850;52.922;6.256;2023-01-06T08:16:39;9.30;;;2.10;;
12467;SDS011;57850;52.922;6.256;2023-01-06T08:19:06;13.48;;;2.97;;
12467;SDS011;57850;52.922;6.256;2023-01-06T08:21:32;8.95;;;2.30;;
12467;SDS011;57850;52.922;6.256;2023-01-06T08:23:59;8.38;;;2.30;;
12467;SDS011;57850;52.922;6.256;2023-01-06T08:26:26;7.90;;;1.67;;
12467;SDS011;57850;52.922;6.256;2023-01-06T08:28:54;4.40;;;1.50;;
12467;SDS011;57850;52.922;6.256;2023-01-06T08:31:21;11.77;;;2.53;;
12467;SDS011;57850;52.922;6.256;2023-01-06T08:33:49;10.20;;;2.05;;
12467;SDS011;57850;52.922;6.256;2023-01-06T08:36:18;3.15;;;1.52;;
12467;SDS011;57850;52.922;6.256;2023-01-06T08:38:46;5.03;;;1.77;;
12467;SDS011;57850;52.922;6.256;2023-01-06T08:41:13;7.68;;;2.20;;
12467;SDS011;57850;52.922;6.256;2023-01-06T08:43:41;6.93;;;1.75;;
12467;SDS011;57850;52.922;6.256;2023-01-06T08:46:11;6.32;;;2.17;;
12467;SDS011;57850;52.922;6.256;2023-01-06T08:48:39;9.98;;;2.28;;
12467;SDS011;57850;52.922;6.256;2023-01-06T08:51:06;6.13;;;1.60;;
12467;SDS011;57850;52.922;6.256;2023-01-06T08:53:36;7.05;;;1.67;;
12467;SDS011;57850;52.922;6.256;2023-01-06T08:56:03;8.02;;;1.88;;
12467;SDS011;57850;52.922;6.256;2023-01-06T08:58:30;10.13;;;2.17;;
12467;SDS011;57850;52.922;6.256;2023-01-06T09:00:56;8.75;;;2.17;;
12467;SDS011;57850;52.922;6.256;2023-01-06T09:03:24;5.25;;;1.98;;
12467;SDS011;57850;52.922;6.256;2023-01-06T09:05:52;9.07;;;1.98;;
12467;SDS011;57850;52.922;6.256;2023-01-06T09:08:19;7.25;;;1.98;;
12467;SDS011;57850;52.922;6.256;2023-01-06T09:10:46;15.25;;;2.08;;
12467;SDS011;57850;52.922;6.256;2023-01-06T09:13:13;12.15;;;2.70;;
12467;SDS011;57850;52.922;6.256;2023-01-06T09:15:39;11.98;;;2.45;;
12467;SDS011;57850;52.922;6.256;2023-01-06T09:18:07;6.60;;;1.63;;
12467;SDS011;57850;52.922;6.256;2023-01-06T09:20:35;8.63;;;1.98;;
12467;SDS011;57850;52.922;6.256;2023-01-06T09:23:02;6.28;;;1.90;;
12467;SDS011;57850;52.922;6.256;2023-01-06T09:25:29;11.68;;;2.00;;
12467;SDS011;57850;52.922;6.256;2023-01-06T09:27:56;7.78;;;1.90;;
12467;SDS011;57850;52.922;6.256;2023-01-06T09:30:23;12.15;;;1.95;;
12467;SDS011;57850;52.922;6.256;2023-01-06T09:32:50;4.82;;;1.88;;
12467;SDS011;57850;52.922;6.256;2023-01-06T09:35:16;5.43;;;2.05;;
12467;SDS011;57850;52.922;6.256;2023-01-06T09:37:44;6.40;;;1.48;;
12467;SDS011;57850;52.922;6.256;2023-01-06T09:40:13;7.35;;;1.80;;
12467;SDS011;57850;52.922;6.256;2023-01-06T09:42:51;9.55;;;1.85;;
12467;SDS011;57850;52.922;6.256;2023-01-06T09:45:30;7.38;;;1.90;;
12467;SDS011;57850;52.922;6.256;2023-01-06T09:48:04;2.88;;;1.45;;
12467;SDS011;57850;52.922;6.256;2023-01-06T09:50:35;4.50;;;1.80;;
12467;SDS011;57850;52.922;6.256;2023-01-06T09:53:08;7.47;;;2.08;;
12467;SDS011;57850;52.922;6.256;2023-01-06T09:55:41;6.43;;;1.65;;
12467;SDS011;57850;52.922;6.256;2023-01-06T09:58:10;5.85;;;1.77;;
12467;SDS011;57850;52.922;6.256;2023-01-06T10:00:40;8.60;;;2.50;;
12467;SDS011;57850;52.922;6.256;2023-01-06T10:03:10;8.98;;;2.03;;
12467;SDS011;57850;52.922;6.256;2023-01-06T10:05:41;7.78;;;2.38;;
12467;SDS011;57850;52.922;6.256;2023-01-06T10:08:18;8.15;;;2.13;;
12467;SDS011;57850;52.922;6.256;2023-01-06T10:11:01;11.13;;;2.00;;
12467;SDS011;57850;52.922;6.256;2023-01-06T10:13:51;9.85;;;2.20;;
12467;SDS011;57850;52.922;6.256;2023-01-06T10:16:32;10.32;;;2.17;;
12467;SDS011;57850;52.922;6.256;2023-01-06T10:19:16;8.45;;;2.35;;
12467;SDS011;57850;52.922;6.256;2023-01-06T10:21:52;5.35;;;2.40;;
12467;SDS011;57850;52.922;6.256;2023-01-06T10:27:38;8.82;;;1.80;;
12467;SDS011;57850;52.922;6.256;2023-01-06T10:30:13;7.35;;;2.15;;
12467;SDS011;57850;52.922;6.256;2023-01-06T10:32:43;7.03;;;2.05;;
12467;SDS011;57850;52.922;6.256;2023-01-06T10:35:13;9.57;;;2.05;;
12467;SDS011;57850;52.922;6.256;2023-01-06T10:37:42;10.50;;;1.90;;
12467;SDS011;57850;52.922;6.256;2023-01-06T10:40:15;9.25;;;2.47;;
12467;SDS011;57850;52.922;6.256;2023-01-06T10:42:45;4.78;;;1.85;;
12467;SDS011;57850;52.922;6.256;2023-01-06T10:45:26;7.03;;;2.10;;
12467;SDS011;57850;52.922;6.256;2023-01-06T10:47:57;8.10;;;1.85;;
12467;SDS011;57850;52.922;6.256;2023-01-06T10:50:25;6.30;;;2.30;;
12467;SDS011;57850;52.922;6.256;2023-01-06T10:52:53;16.65;;;2.67;;
12467;SDS011;57850;52.922;6.256;2023-01-06T10:55:26;7.20;;;2.50;;
12467;SDS011;57850;52.922;6.256;2023-01-06T10:58:00;8.13;;;2.00;;
12467;SDS011;57850;52.922;6.256;2023-01-06T11:00:32;9.93;;;2.80;;
12467;SDS011;57850;52.922;6.256;2023-01-06T11:03:03;11.05;;;2.33;;
12467;SDS011;57850;52.922;6.256;2023-01-06T11:05:31;10.90;;;2.42;;
12467;SDS011;57850;52.922;6.256;2023-01-06T11:08:02;9.30;;;2.22;;
12467;SDS011;57850;52.922;6.256;2023-01-06T11:10:35;7.35;;;2.15;;
12467;SDS011;57850;52.922;6.256;2023-01-06T11:13:04;11.50;;;2.50;;
12467;SDS011;57850;52.922;6.256;2023-01-06T11:15:37;12.93;;;2.83;;
12467;SDS011;57850;52.922;6.256;2023-01-06T11:18:15;9.93;;;2.60;;
12467;SDS011;57850;52.922;6.256;2023-01-06T11:20:45;13.77;;;2.28;;
12467;SDS011;57850;52.922;6.256;2023-01-06T11:23:27;7.75;;;2.33;;
12467;SDS011;57850;52.922;6.256;2023-01-06T11:26:03;11.82;;;2.38;;
12467;SDS011;57850;52.922;6.256;2023-01-06T11:28:33;10.27;;;2.63;;
12467;SDS011;57850;52.922;6.256;2023-01-06T11:31:00;11.00;;;2.72;;
12467;SDS011;57850;52.922;6.256;2023-01-06T11:33:31;10.38;;;2.65;;
12467;SDS011;57850;52.922;6.256;2023-01-06T11:36:05;10.43;;;3.13;;
12467;SDS011;57850;52.922;6.256;2023-01-06T11:38:39;7.63;;;2.53;;
12467;SDS011;57850;52.922;6.256;2023-01-06T11:41:09;5.72;;;2.20;;
12467;SDS011;57850;52.922;6.256;2023-01-06T11:43:37;10.00;;;2.40;;
12467;SDS011;57850;52.922;6.256;2023-01-06T11:46:10;7.72;;;2.55;;
12467;SDS011;57850;52.922;6.256;2023-01-06T11:48:39;9.57;;;2.75;;
12467;SDS011;57850;52.922;6.256;2023-01-06T11:51:09;13.60;;;2.92;;
12467;SDS011;57850;52.922;6.256;2023-01-06T11:53:36;8.68;;;2.70;;
12467;SDS011;57850;52.922;6.256;2023-01-06T11:56:05;10.23;;;2.90;;
12467;SDS011;57850;52.922;6.256;2023-01-06T11:58:45;12.05;;;3.10;;
12467;SDS011;57850;52.922;6.256;2023-01-06T12:01:19;8.07;;;2.83;;
12467;SDS011;57850;52.922;6.256;2023-01-06T12:03:53;10.93;;;2.53;;
12467;SDS011;57850;52.922;6.256;2023-01-06T12:06:30;9.65;;;2.50;;
12467;SDS011;57850;52.922;6.256;2023-01-06T12:09:02;10.43;;;2.55;;
12467;SDS011;57850;52.922;6.256;2023-01-06T12:11:38;9.25;;;2.70;;
12467;SDS011;57850;52.922;6.256;2023-01-06T12:14:12;8.95;;;2.30;;
12467;SDS011;57850;52.922;6.256;2023-01-06T12:16:42;10.98;;;2.30;;
12467;SDS011;57850;52.922;6.256;2023-01-06T12:19:19;9.82;;;2.30;;
12467;SDS011;57850;52.922;6.256;2023-01-06T12:21:52;10.63;;;2.35;;
12467;SDS011;57850;52.922;6.256;2023-01-06T12:24:20;9.52;;;2.28;;
12467;SDS011;57850;52.922;6.256;2023-01-06T12:26:48;11.35;;;2.35;;
12467;SDS011;57850;52.922;6.256;2023-01-06T12:29:18;6.68;;;2.60;;
12467;SDS011;57850;52.922;6.256;2023-01-06T12:31:50;11.63;;;2.75;;
12467;SDS011;57850;52.922;6.256;2023-01-06T12:34:25;11.38;;;2.80;;
12467;SDS011;57850;52.922;6.256;2023-01-06T12:36:58;9.88;;;2.40;;
12467;SDS011;57850;52.922;6.256;2023-01-06T12:39:35;9.63;;;2.25;;
12467;SDS011;57850;52.922;6.256;2023-01-06T12:42:11;8.55;;;2.35;;
12467;SDS011;57850;52.922;6.256;2023-01-06T12:44:46;12.10;;;3.35;;
12467;SDS011;57850;52.922;6.256;2023-01-06T12:47:18;11.48;;;3.53;;
12467;SDS011;57850;52.922;6.256;2023-01-06T12:49:54;10.68;;;3.15;;
12467;SDS011;57850;52.922;6.256;2023-01-06T12:52:26;8.55;;;2.75;;
12467;SDS011;57850;52.922;6.256;2023-01-06T12:54:58;10.98;;;3.20;;
12467;SDS011;57850;52.922;6.256;2023-01-06T12:57:37;12.23;;;3.28;;
12467;SDS011;57850;52.922;6.256;2023-01-06T13:00:21;13.07;;;3.60;;
12467;SDS011;57850;52.922;6.256;2023-01-06T13:03:04;12.07;;;3.15;;
12467;SDS011;57850;52.922;6.256;2023-01-06T13:05:49;9.05;;;3.40;;
12467;SDS011;57850;52.922;6.256;2023-01-06T13:08:33;10.38;;;3.28;;
12467;SDS011;57850;52.922;6.256;2023-01-06T13:11:18;13.27;;;3.70;;
12467;SDS011;57850;52.922;6.256;2023-01-06T13:14:01;12.13;;;3.78;;
12467;SDS011;57850;52.922;6.256;2023-01-06T13:16:37;11.60;;;3.50;;
12467;SDS011;57850;52.922;6.256;2023-01-06T13:19:13;10.32;;;3.25;;
12467;SDS011;57850;52.922;6.256;2023-01-06T13:21:45;11.32;;;2.95;;
12467;SDS011;57850;52.922;6.256;2023-01-06T13:24:22;12.52;;;2.65;;
12467;SDS011;57850;52.922;6.256;2023-01-06T13:29:59;11.25;;;2.33;;
12467;SDS011;57850;52.922;6.256;2023-01-06T13:32:44;6.22;;;2.00;;
12467;SDS011;57850;52.922;6.256;2023-01-06T13:35:28;9.32;;;2.30;;
12467;SDS011;57850;52.922;6.256;2023-01-06T13:38:14;10.70;;;2.13;;
12467;SDS011;57850;52.922;6.256;2023-01-06T13:40:52;12.27;;;2.67;;
12467;SDS011;57850;52.922;6.256;2023-01-06T13:43:25;11.05;;;2.30;;
12467;SDS011;57850;52.922;6.256;2023-01-06T13:45:54;11.30;;;2.70;;
12467;SDS011;57850;52.922;6.256;2023-01-06T13:48:26;17.50;;;2.67;;
12467;SDS011;57850;52.922;6.256;2023-01-06T13:50:57;8.82;;;2.53;;
12467;SDS011;57850;52.922;6.256;2023-01-06T13:53:24;10.35;;;1.80;;
12467;SDS011;57850;52.922;6.256;2023-01-06T13:58:48;9.18;;;2.85;;
12467;SDS011;57850;52.922;6.256;2023-01-06T14:01:29;12.90;;;2.40;;
12467;SDS011;57850;52.922;6.256;2023-01-06T14:04:42;12.45;;;2.95;;
12467;SDS011;57850;52.922;6.256;2023-01-06T14:07:08;11.02;;;3.33;;
12467;SDS011;57850;52.922;6.256;2023-01-06T14:09:36;9.13;;;2.72;;
12467;SDS011;57850;52.922;6.256;2023-01-06T14:12:13;11.00;;;2.72;;
12467;SDS011;57850;52.922;6.256;2023-01-06T14:14:43;11.68;;;2.60;;
12467;SDS011;57850;52.922;6.256;2023-01-06T14:17:29;8.20;;;2.70;;
12467;SDS011;57850;52.922;6.256;2023-01-06T14:20:02;11.00;;;2.70;;
12467;SDS011;57850;52.922;6.256;2023-01-06T14:22:33;9.20;;;2.35;;
12467;SDS011;57850;52.922;6.256;2023-01-06T14:25:00;11.82;;;2.88;;
12467;SDS011;57850;52.922;6.256;2023-01-06T14:30:39;7.80;;;2.90;;
12467;SDS011;57850;52.922;6.256;2023-01-06T14:33:22;10.90;;;2.70;;
12467;SDS011;57850;52.922;6.256;2023-01-06T14:35:58;14.13;;;3.55;;
12467;SDS011;57850;52.922;6.256;2023-01-06T14:38:31;13.30;;;4.97;;
12467;SDS011;57850;52.922;6.256;2023-01-06T14:41:06;19.15;;;6.53;;
12467;SDS011;57850;52.922;6.256;2023-01-06T14:43:46;23.25;;;6.57;;
12467;SDS011;57850;52.922;6.256;2023-01-06T14:46:18;19.98;;;7.00;;
12467;SDS011;57850;52.922;6.256;2023-01-06T14:48:49;17.67;;;7.13;;
12467;SDS011;57850;52.922;6.256;2023-01-06T14:51:21;20.48;;;6.68;;
12467;SDS011;57850;52.922;6.256;2023-01-06T14:53:55;22.63;;;6.50;;
12467;SDS011;57850;52.922;6.256;2023-01-06T14:56:28;21.17;;;5.10;;
12467;SDS011;57850;52.922;6.256;2023-01-06T14:59:03;12.57;;;3.97;;
12467;SDS011;57850;52.922;6.256;2023-01-06T15:01:32;11.07;;;4.03;;
12467;SDS011;57850;52.922;6.256;2023-01-06T15:04:00;10.07;;;3.55;;
12467;SDS011;57850;52.922;6.256;2023-01-06T15:06:30;11.32;;;2.97;;
12467;SDS011;57850;52.922;6.256;2023-01-06T15:09:12;10.02;;;3.15;;
12467;SDS011;57850;52.922;6.256;2023-01-06T15:11:44;10.13;;;2.60;;
12467;SDS011;57850;52.922;6.256;2023-01-06T15:14:28;11.88;;;2.65;;
12467;SDS011;57850;52.922;6.256;2023-01-06T15:16:57;9.48;;;2.75;;
12467;SDS011;57850;52.922;6.256;2023-01-06T15:19:27;9.75;;;2.65;;